Terminal Aerodrome Forecast
Issued by NWS Cleveland, OH

Home | Current Version | Previous Version | Text Only | Print | Product List | Glossary Off
Versions: 1 2 3 4 5 6 7 8 9 10 11 12 13 14 15 16 17 18 19 20

427
FTUS41 KCLE 212323
TAFMFD
TAF
KMFD 212323Z 2200/2224 23011KT P6SM VCSH BKN050
     FM220100 21005KT P6SM SCT040 BKN080
      TEMPO 2209/2212 5SM BR
     FM221200 23010KT P6SM VCSH BKN035
     FM221600 25012G20KT P6SM BKN040=

USA.gov is the U.S. government's official web portal to all federal, state and local government web resources and services.